Time;durP1;ratioP1;P1;durP2;ratioP2;P2;SDS_P1;SDS_P2;PMS_P1;PMS_P2;Temp;Humidity;BMP_temperature;BMP_pressure;BME280_temperature;BME280_humidity;BME280_pressure;Samples;Min_cycle;Max_cycle;Signal;HPM_P1;HPM_P2
2021/11/17 02:27:17;;;;;;;64.35;37.47;;;7.90;77.00;;;;;;4418204;29;20070;-69
2021/11/17 02:29:53;;;;;;;65.05;37.40;;;7.90;77.00;;;;;;4421214;29;20088;-69
2021/11/17 02:32:35;;;;;;;69.85;39.10;;;7.90;76.90;;;;;;4419438;29;20099;-69
2021/11/17 02:35:13;;;;;;;70.05;39.33;;;7.90;76.90;;;;;;4419179;29;20081;-69
2021/11/17 02:37:44;;;;;;;72.47;40.72;;;7.90;76.90;;;;;;4417569;29;20133;-70
2021/11/17 02:40:27;;;;;;;69.78;40.03;;;7.90;77.00;;;;;;4421178;29;20076;-69
2021/11/17 02:42:57;;;;;;;81.05;41.63;;;7.90;76.90;;;;;;4420095;29;20554;-69
2021/11/17 02:45:33;;;;;;;70.80;39.20;;;8.00;77.10;;;;;;4420729;29;20095;-69
2021/11/17 02:48:06;;;;;;;71.28;40.42;;;8.00;77.20;;;;;;4422205;29;20074;-69
2021/11/17 02:50:56;;;;;;;76.43;41.17;;;8.00;77.20;;;;;;4421682;29;20074;-69
2021/11/17 02:53:26;;;;;;;72.15;40.83;;;8.00;77.20;;;;;;4379013;29;20145;-69
2021/11/17 02:55:54;;;;;;;70.22;40.53;;;8.00;77.30;;;;;;4422203;29;20522;-69
2021/11/17 02:58:32;;;;;;;70.90;40.95;;;8.00;77.20;;;;;;4420404;29;20054;-69
2021/11/17 03:01:08;;;;;;;70.78;39.85;;;8.10;77.20;;;;;;4421019;29;20074;-68
2021/11/17 03:03:39;;;;;;;72.72;39.72;;;8.00;77.20;;;;;;4419949;29;20586;-69
2021/11/17 03:06:32;;;;;;;70.40;41.92;;;8.10;77.40;;;;;;4422148;29;20474;-69
2021/11/17 03:09:09;;;;;;;72.85;41.60;;;8.10;77.20;;;;;;4422098;29;20892;-68
2021/11/17 03:12:08;;;;;;;73.63;42.20;;;8.10;77.40;;;;;;4421662;29;20085;-68
2021/11/17 03:14:46;;;;;;;71.45;41.08;;;8.10;77.30;;;;;;4420642;29;20056;-68
2021/11/17 03:17:38;;;;;;;72.80;41.58;;;8.10;77.40;;;;;;4421784;29;20077;-69
2021/11/17 03:20:09;;;;;;;74.30;39.00;;;8.10;77.30;;;;;;4414395;29;20601;-69
2021/11/17 03:22:44;;;;;;;66.28;40.40;;;8.10;77.50;;;;;;4422169;29;20078;-69
2021/11/17 03:25:16;;;;;;;69.88;40.17;;;8.20;77.40;;;;;;4420024;29;20129;-69
2021/11/17 03:27:49;;;;;;;70.72;40.80;;;8.20;77.60;;;;;;4421954;29;20078;-69
2021/11/17 03:30:28;;;;;;;70.25;39.85;;;8.20;77.40;;;;;;4421897;29;20127;-69
2021/11/17 03:33:11;;;;;;;67.10;38.72;;;8.20;77.40;;;;;;4419847;29;20081;-68
2021/11/17 03:35:46;;;;;;;70.00;38.90;;;8.20;77.50;;;;;;4421736;29;20050;-68
2021/11/17 03:38:28;;;;;;;65.32;38.90;;;8.20;77.50;;;;;;4419816;29;20062;-68
2021/11/17 03:41:08;;;;;;;71.10;39.58;;;8.20;77.50;;;;;;4421597;29;20471;-68
2021/11/17 03:43:53;;;;;;;69.63;39.95;;;8.30;77.60;;;;;;4411289;29;20138;-69
2021/11/17 03:46:35;;;;;;;69.25;38.95;;;8.30;77.60;;;;;;4419658;29;20549;-69
2021/11/17 03:49:11;;;;;;;74.80;40.38;;;8.30;77.50;;;;;;4421355;29;20100;-68
2021/11/17 03:51:50;;;;;;;68.43;39.70;;;8.30;77.50;;;;;;4421090;29;20129;-69
2021/11/17 03:54:28;;;;;;;68.47;38.92;;;8.30;77.40;;;;;;4419617;29;20074;-69
2021/11/17 03:57:03;;;;;;;64.90;38.53;;;8.30;77.50;;;;;;4420252;29;20543;-68
2021/11/17 03:59:43;;;;;;;66.05;38.78;;;8.30;77.50;;;;;;4420909;29;20474;-69
2021/11/17 04:02:19;;;;;;;61.15;36.30;;;8.30;77.40;;;;;;4420125;29;20056;-68
2021/11/17 04:04:50;;;;;;;65.38;38.03;;;8.40;77.50;;;;;;4419862;29;20077;-69
2021/11/17 04:07:26;;;;;;;62.20;37.55;;;8.40;77.50;;;;;;4419478;29;20579;-69
2021/11/17 04:09:54;;;;;;;64.95;37.05;;;8.40;77.40;;;;;;4421345;29;20100;-69
2021/11/17 04:12:29;;;;;;;61.67;35.80;;;8.40;77.40;;;;;;4420885;29;20058;-69
2021/11/17 04:14:58;;;;;;;62.17;36.08;;;8.50;77.40;;;;;;4421303;29;20062;-69
2021/11/17 04:17:30;;;;;;;63.50;37.17;;;8.50;77.40;;;;;;4420859;29;20057;-69
2021/11/17 04:19:58;;;;;;;61.13;37.85;;;8.50;77.30;;;;;;4419579;29;20050;-69
2021/11/17 04:22:32;;;;;;;61.30;37.20;;;8.50;78.00;;;;;;4421032;29;20066;-69
2021/11/17 04:25:22;;;;;;;64.97;37.22;;;8.50;77.20;;;;;;4419310;29;20083;-69
2021/11/17 04:27:47;;;;;;;;;;;8.60;77.30;;;;;;4410245;29;20067;-68
2021/11/17 04:30:31;;;;;;;59.05;36.10;;;8.50;77.00;;;;;;4419157;29;19956;-69
2021/11/17 04:33:19;;;;;;;63.38;37.30;;;8.60;77.30;;;;;;4420635;29;20054;-69
2021/11/17 04:36:00;;;;;;;64.32;38.90;;;8.50;77.20;;;;;;4419715;29;20079;-68
2021/11/17 04:38:34;;;;;;;67.72;39.58;;;8.60;77.30;;;;;;4420426;29;20059;-69
2021/11/17 04:41:45;;;;;;;70.47;39.55;;;8.60;77.30;;;;;;4419984;29;20074;-69
2021/11/17 04:44:22;;;;;;;67.20;39.58;;;8.60;77.20;;;;;;4352443;30;20137;-68
2021/11/17 04:46:59;;;;;;;62.67;38.28;;;8.60;77.30;;;;;;4408226;29;20093;-68
2021/11/17 04:49:43;;;;;;;60.58;36.80;;;8.60;77.30;;;;;;4420863;29;20425;-68
2021/11/17 04:52:13;;;;;;;64.97;37.40;;;8.60;77.30;;;;;;4420537;29;20419;-68
2021/11/17 04:54:52;;;;;;;62.58;36.50;;;8.60;77.40;;;;;;4420298;29;20078;-68
2021/11/17 04:57:25;;;;;;;63.88;36.95;;;8.70;77.30;;;;;;4419601;29;20070;-68
2021/11/17 04:59:59;;;;;;;66.88;38.05;;;8.60;77.30;;;;;;4420113;29;20129;-68
2021/11/17 05:02:31;;;;;;;60.88;37.28;;;8.60;77.30;;;;;;4421795;29;20077;-68
2021/11/17 05:05:00;;;;;;;65.57;38.42;;;8.60;77.40;;;;;;4423337;29;20078;-68
2021/11/17 05:07:28;;;;;;;74.68;42.17;;;8.70;77.40;;;;;;4423505;29;20074;-68
2021/11/17 05:09:56;;;;;;;69.28;40.80;;;8.60;77.30;;;;;;4422422;29;20058;-69
2021/11/17 05:12:25;;;;;;;70.60;40.67;;;8.60;77.30;;;;;;4423188;29;20073;-68
2021/11/17 05:14:52;;;;;;;70.10;40.50;;;8.70;77.30;;;;;;4423747;29;20100;-69
2021/11/17 05:17:19;;;;;;;68.55;39.17;;;8.70;77.20;;;;;;4423101;29;20060;-69
2021/11/17 05:19:44;;;;;;;65.38;40.65;;;8.70;77.20;;;;;;4423721;29;20129;-69
2021/11/17 05:22:16;;;;;;;66.65;40.35;;;8.70;77.10;;;;;;4421857;29;20046;-69
2021/11/17 05:24:46;;;;;;;67.38;40.00;;;8.70;77.10;;;;;;4423419;29;21028;-69
2021/11/17 05:27:17;;;;;;;72.05;41.42;;;8.70;77.00;;;;;;4423408;29;20078;-67
2021/11/17 05:29:54;;;;;;;71.20;42.30;;;8.70;77.00;;;;;;4422893;29;20050;-69
2021/11/17 05:32:29;;;;;;;71.85;41.78;;;8.70;77.00;;;;;;4423681;29;20050;-69
2021/11/17 05:34:56;;;;;;;68.57;40.45;;;8.70;76.90;;;;;;4421563;29;20060;-69
2021/11/17 05:37:29;;;;;;;73.55;41.20;;;8.80;77.00;;;;;;4422129;29;20602;-69
2021/11/17 05:39:58;;;;;;;69.47;40.97;;;8.80;76.90;;;;;;4423067;29;20057;-69
2021/11/17 05:42:28;;;;;;;70.25;40.67;;;8.80;76.90;;;;;;4421569;29;20072;-69
2021/11/17 05:44:57;;;;;;;73.45;42.60;;;8.80;76.90;;;;;;4421857;29;20521;-68
2021/11/17 05:47:29;;;;;;;68.35;40.22;;;8.80;76.80;;;;;;4422593;29;20452;-68
2021/11/17 05:49:57;;;;;;;73.18;40.45;;;8.80;76.80;;;;;;4421900;29;20047;-67
2021/11/17 05:52:47;;;;;;;68.97;40.67;;;8.80;76.70;;;;;;4420878;29;20100;-70
2021/11/17 05:55:25;;;;;;;68.03;39.88;;;8.80;76.50;;;;;;4384703;29;20175;-69
2021/11/17 05:57:55;;;;;;;68.15;39.83;;;8.80;76.60;;;;;;4423084;29;20133;-69
2021/11/17 06:00:46;;;;;;;66.45;39.83;;;8.80;76.60;;;;;;4421238;29;20070;-69
2021/11/17 06:03:20;;;;;;;68.80;40.08;;;8.90;76.60;;;;;;4421096;29;20066;-69
2021/11/17 06:05:38;;;;;;;82.25;49.15;;;8.80;76.60;;;;;;4420502;29;20070;-69
2021/11/17 06:07:54;;;;;;;149.35;85.30;;;8.80;76.60;;;;;;4419058;29;20054;-69
2021/11/17 06:10:15;;;;;;;69.03;40.42;;;8.80;76.60;;;;;;4419213;29;20439;-69
2021/11/17 06:12:32;;;;;;;70.63;41.25;;;8.80;76.60;;;;;;4418805;29;20074;-69
2021/11/17 06:14:51;;;;;;;68.25;41.47;;;8.80;76.60;;;;;;4420766;29;20134;-70
2021/11/17 06:17:10;;;;;;;67.28;40.05;;;8.80;76.60;;;;;;4420829;29;20058;-69
2021/11/17 06:19:30;;;;;;;65.25;39.75;;;8.90;76.60;;;;;;4419889;29;20470;-70
2021/11/17 06:21:47;;;;;;;69.72;41.67;;;8.90;76.60;;;;;;4420009;29;20050;-68
2021/11/17 06:24:06;;;;;;;70.28;42.30;;;8.90;76.50;;;;;;4420497;29;20055;-68
2021/11/17 06:26:28;;;;;;;65.25;39.22;;;8.90;76.40;;;;;;4421104;29;20069;-68
2021/11/17 06:28:45;;;;;;;71.22;41.40;;;8.90;76.40;;;;;;4421224;29;20053;-69
2021/11/17 06:31:02;;;;;;;70.03;40.45;;;8.90;76.30;;;;;;4420443;29;20097;-68
2021/11/17 06:33:19;;;;;;;68.95;40.20;;;9.00;76.40;;;;;;4420899;29;20093;-68
2021/11/17 06:35:39;;;;;;;66.13;40.28;;;9.00;76.40;;;;;;4420549;29;20433;-70
2021/11/17 06:37:58;;;;;;;70.18;40.33;;;9.00;76.30;;;;;;4421036;29;20129;-69
2021/11/17 06:40:19;;;;;;;69.43;40.38;;;9.00;76.20;;;;;;4420872;29;20061;-69
2021/11/17 06:42:39;;;;;;;71.50;40.22;;;9.00;76.20;;;;;;4421950;29;20072;-69
2021/11/17 06:44:56;;;;;;;69.55;39.55;;;9.00;76.20;;;;;;4420995;29;20147;-69
2021/11/17 06:47:18;;;;;;;66.63;39.17;;;9.00;76.90;;;;;;4420450;29;20070;-69
2021/11/17 06:49:35;;;;;;;66.38;41.00;;;9.10;76.10;;;;;;4422178;29;20414;-69
2021/11/17 06:51:52;;;;;;;69.13;40.67;;;9.10;76.10;;;;;;4421847;29;20062;-69
2021/11/17 06:54:09;;;;;;;65.93;40.00;;;9.10;76.00;;;;;;4420720;29;20085;-69
2021/11/17 06:56:27;;;;;;;66.07;40.13;;;9.10;75.90;;;;;;4420308;29;20077;-68
2021/11/17 06:58:45;;;;;;;67.40;39.70;;;9.10;75.80;;;;;;4421932;29;20070;-69
2021/11/17 07:01:02;;;;;;;65.18;40.20;;;9.10;75.80;;;;;;4421483;29;20074;-69
2021/11/17 07:03:19;;;;;;;65.68;40.15;;;9.20;75.90;;;;;;4421936;29;20159;-69
2021/11/17 07:05:35;;;;;;;62.88;39.53;;;9.20;75.90;;;;;;4420260;29;20577;-69
2021/11/17 07:07:54;;;;;;;66.15;39.80;;;9.20;75.80;;;;;;4420690;29;20502;-69
2021/11/17 07:10:14;;;;;;;68.07;39.13;;;9.20;75.80;;;;;;4421482;29;20498;-69
2021/11/17 07:12:31;;;;;;;64.22;39.75;;;9.20;75.80;;;;;;4421857;29;20057;-69
2021/11/17 07:14:49;;;;;;;61.15;38.15;;;9.20;75.70;;;;;;4420388;29;20053;-69
2021/11/17 07:17:07;;;;;;;63.47;39.92;;;9.30;75.80;;;;;;4421933;29;20494;-69
2021/11/17 07:19:25;;;;;;;68.80;40.80;;;9.30;75.70;;;;;;4421585;29;20111;-69
2021/11/17 07:21:44;;;;;;;67.70;40.10;;;9.30;75.50;;;;;;4421467;29;20084;-69
2021/11/17 07:24:03;;;;;;;67.05;41.10;;;9.30;75.50;;;;;;4419796;29;20062;-69
2021/11/17 07:26:19;;;;;;;66.80;38.88;;;9.40;75.40;;;;;;4421599;29;20042;-69
2021/11/17 07:28:36;;;;;;;63.92;39.50;;;9.40;75.30;;;;;;4421593;29;20080;-68
2021/11/17 07:31:00;;;;;;;61.40;38.85;;;9.40;75.20;;;;;;4419947;29;20529;-68
2021/11/17 07:33:17;;;;;;;69.43;40.55;;;9.40;75.10;;;;;;4420133;29;20052;-68
2021/11/17 07:35:40;;;;;;;65.22;38.35;;;9.50;75.10;;;;;;4421272;29;20520;-69
2021/11/17 07:38:01;;;;;;;62.45;38.53;;;9.50;75.10;;;;;;4421460;29;20084;-68
2021/11/17 07:40:18;;;;;;;65.43;39.65;;;9.50;74.90;;;;;;4421276;29;20410;-72
2021/11/17 07:42:35;;;;;;;66.00;39.63;;;9.50;74.80;;;;;;4421580;29;20422;-68
2021/11/17 07:44:52;;;;;;;68.70;40.90;;;9.60;74.70;;;;;;4421051;29;20046;-69
2021/11/17 07:47:10;;;;;;;71.05;41.70;;;9.60;74.50;;;;;;4419895;29;20078;-68
2021/11/17 07:49:28;;;;;;;67.72;40.38;;;9.60;74.40;;;;;;4419922;29;20047;-69
2021/11/17 07:51:48;;;;;;;67.25;40.28;;;9.70;74.50;;;;;;4421201;29;20130;-68
2021/11/17 07:54:05;;;;;;;73.25;41.67;;;9.70;74.50;;;;;;4421242;29;20463;-68
2021/11/17 07:56:22;;;;;;;67.25;41.00;;;9.70;74.40;;;;;;4419502;29;20081;-69
2021/11/17 07:58:43;;;;;;;70.55;42.10;;;9.80;74.30;;;;;;4420360;29;20113;-69
2021/11/17 08:01:00;;;;;;;68.10;40.38;;;9.80;74.10;;;;;;4421301;29;20072;-69
2021/11/17 08:03:21;;;;;;;64.43;40.08;;;9.80;74.00;;;;;;4420880;29;20099;-69
2021/11/17 08:05:40;;;;;;;67.78;41.03;;;9.90;73.90;;;;;;4421101;29;20066;-69
2021/11/17 08:07:56;;;;;;;70.53;42.15;;;9.90;73.80;;;;;;4421138;29;20061;-69
2021/11/17 08:10:16;;;;;;;69.18;39.47;;;9.90;74.60;;;;;;4420821;29;20077;-69
2021/11/17 08:12:32;;;;;;;71.20;41.65;;;10.00;73.80;;;;;;4421112;29;20046;-68
2021/11/17 08:14:51;;;;;;;66.72;39.72;;;10.00;73.70;;;;;;4420733;29;20054;-69
2021/11/17 08:17:09;;;;;;;68.57;40.88;;;10.00;74.40;;;;;;4419756;29;20130;-68
2021/11/17 08:19:27;;;;;;;67.97;41.47;;;10.10;73.50;;;;;;4419157;29;20046;-68
2021/11/17 08:21:44;;;;;;;65.35;39.00;;;10.10;73.40;;;;;;4420898;29;20078;-69
2021/11/17 08:24:01;;;;;;;65.40;39.78;;;10.10;73.30;;;;;;4419351;29;20466;-69
2021/11/17 08:26:22;;;;;;;69.95;39.60;;;10.20;73.90;;;;;;4420802;29;20524;-68
2021/11/17 08:28:41;;;;;;;65.43;39.28;;;10.30;73.00;;;;;;4419574;29;20087;-68
2021/11/17 08:30:58;;;;;;;70.50;40.88;;;10.30;73.00;;;;;;4420502;29;20074;-68
2021/11/17 08:33:15;;;;;;;69.55;40.30;;;10.30;72.90;;;;;;4420993;29;20074;-68
2021/11/17 08:35:33;;;;;;;66.90;40.22;;;10.30;72.70;;;;;;4420429;29;20486;-68
2021/11/17 08:37:53;;;;;;;67.88;41.55;;;10.40;72.70;;;;;;4420924;29;20076;-69
2021/11/17 08:40:12;;;;;;;66.90;40.35;;;10.40;72.50;;;;;;4419250;29;20054;-68
2021/11/17 08:42:28;;;;;;;67.63;40.00;;;10.50;72.40;;;;;;4419416;29;20050;-68
2021/11/17 08:44:45;;;;;;;63.13;39.38;;;10.50;72.20;;;;;;4420672;29;20074;-68
2021/11/17 08:47:02;;;;;;;70.15;41.05;;;10.50;72.10;;;;;;4420707;29;20430;-68
2021/11/17 08:49:18;;;;;;;69.32;40.15;;;10.50;72.20;;;;;;4419094;29;20054;-68
2021/11/17 08:51:36;;;;;;;80.90;43.38;;;10.50;72.10;;;;;;4419449;29;20572;-68
2021/11/17 08:53:55;;;;;;;68.28;39.28;;;10.50;72.00;;;;;;4418937;29;20046;-68
2021/11/17 08:56:12;;;;;;;71.57;41.08;;;10.60;72.00;;;;;;4419344;29;20532;-68
2021/11/17 08:58:28;;;;;;;71.35;41.67;;;10.60;71.80;;;;;;4420406;29;20074;-68
2021/11/17 09:00:47;;;;;;;73.65;40.78;;;10.60;71.80;;;;;;4420406;29;20051;-68
2021/11/17 09:03:06;;;;;;;70.60;41.20;;;10.60;71.60;;;;;;4420364;29;20081;-69
2021/11/17 09:05:26;;;;;;;69.63;40.03;;;10.60;71.60;;;;;;4420360;29;20074;-69
2021/11/17 09:07:46;;;;;;;72.93;42.40;;;10.60;71.50;;;;;;4420522;29;20852;-69
2021/11/17 09:10:08;;;;;;;69.35;40.33;;;10.60;71.40;;;;;;4420348;29;20054;-69
2021/11/17 09:12:27;;;;;;;68.65;40.53;;;10.60;71.40;;;;;;4419157;29;20074;-69
2021/11/17 09:14:44;;;;;;;69.32;40.45;;;10.60;71.40;;;;;;4420071;29;20134;-69
2021/11/17 09:17:01;;;;;;;73.80;41.38;;;10.60;71.40;;;;;;4420281;29;20055;-70
2021/11/17 09:19:22;;;;;;;67.45;41.15;;;10.60;71.40;;;;;;4418795;29;20459;-69
2021/11/17 09:21:41;;;;;;;69.30;40.55;;;10.60;71.40;;;;;;4417821;29;20046;-69
2021/11/17 09:23:58;;;;;;;67.75;39.65;;;10.60;71.40;;;;;;4419862;29;20054;-69
2021/11/17 09:26:18;;;;;;;67.22;39.60;;;10.60;71.20;;;;;;4420308;29;20471;-69
2021/11/17 09:28:35;;;;;;;64.30;38.97;;;10.70;71.10;;;;;;4418510;29;20168;-69
2021/11/17 09:30:53;;;;;;;67.50;38.33;;;10.70;71.10;;;;;;4418825;29;20047;-69
2021/11/17 09:33:11;;;;;;;63.78;39.22;;;10.70;70.70;;;;;;4418361;29;20565;-69
2021/11/17 09:35:31;;;;;;;66.03;39.10;;;10.80;70.80;;;;;;4418796;29;20493;-69
2021/11/17 09:37:50;;;;;;;61.15;37.47;;;10.70;70.60;;;;;;4420170;29;20050;-69
2021/11/17 09:40:15;;;;;;;61.97;36.75;;;10.80;70.80;;;;;;4419823;29;20066;-69
2021/11/17 09:42:31;;;;;;;60.85;36.78;;;10.80;70.50;;;;;;4418893;29;20069;-69
2021/11/17 09:44:48;;;;;;;62.40;36.15;;;10.80;70.40;;;;;;4418445;29;20053;-69
2021/11/17 09:47:07;;;;;;;77.47;36.53;;;10.80;71.20;;;;;;4419396;29;20490;-69
2021/11/17 09:49:33;;;;;;;63.92;36.90;;;10.80;70.50;;;;;;4422715;29;20478;-69
2021/11/17 09:51:52;;;;;;;63.80;36.08;;;10.80;70.40;;;;;;4422813;29;20066;-69
2021/11/17 09:54:13;;;;;;;59.55;36.10;;;10.80;70.20;;;;;;4421534;29;20456;-69
2021/11/17 09:56:36;;;;;;;59.28;33.83;;;10.90;70.20;;;;;;4422861;29;20417;-69
2021/11/17 09:58:56;;;;;;;62.87;36.60;;;10.90;70.10;;;;;;4421334;29;20387;-69
2021/11/17 10:01:19;;;;;;;63.50;36.47;;;10.90;70.10;;;;;;4421510;29;20085;-67
2021/11/17 10:03:40;;;;;;;59.28;36.08;;;10.90;70.10;;;;;;4422275;29;20112;-69
2021/11/17 10:11:38;;;;;;;64.97;37.40;;;10.90;69.90;;;;;;4421353;29;20123;-69
2021/11/17 10:14:03;;;;;;;56.03;34.22;;;11.00;69.80;;;;;;4421277;29;20073;-68
2021/11/17 10:16:22;;;;;;;56.63;33.13;;;11.00;69.60;;;;;;4422248;29;20074;-68
2021/11/17 10:18:41;;;;;;;59.40;34.20;;;11.00;69.50;;;;;;4422649;29;20164;-68
2021/11/17 10:21:04;;;;;;;61.30;34.25;;;11.10;70.30;;;;;;4421194;29;20519;-69
2021/11/17 10:23:23;;;;;;;58.72;34.28;;;11.10;69.50;;;;;;4420898;29;20206;-68
2021/11/17 10:25:44;;;;;;;58.15;34.05;;;11.10;69.40;;;;;;4422390;29;20042;-68
2021/11/17 10:28:03;;;;;;;57.35;35.03;;;11.10;69.30;;;;;;4422009;29;20077;-68
2021/11/17 10:30:31;;;;;;;57.75;34.63;;;11.20;69.20;;;;;;4422309;29;20090;-69
2021/11/17 10:32:58;;;;;;;53.92;32.80;;;11.20;69.10;;;;;;4422102;29;20054;-69
2021/11/17 10:35:24;;;;;;;51.70;33.28;;;11.30;69.00;;;;;;4422396;29;20081;-68
2021/11/17 10:37:42;;;;;;;54.13;34.20;;;11.30;68.90;;;;;;4420853;29;20087;-69
2021/11/17 10:40:00;;;;;;;57.42;33.13;;;11.30;69.60;;;;;;4421166;29;20052;-68
2021/11/17 10:42:35;;;;;;;53.88;32.53;;;11.30;68.80;;;;;;4422071;29;20053;-69
2021/11/17 10:44:55;;;;;;;49.45;31.08;;;11.40;68.80;;;;;;4422097;29;20066;-69
2021/11/17 10:47:37;;;;;;;46.97;27.63;;;11.50;68.90;;;;;;4420961;29;20486;-69
2021/11/17 10:50:09;;;;;;;47.05;27.65;;;11.60;68.30;;;;;;4420581;29;20602;-69
2021/11/17 10:52:29;;;;;;;47.45;27.85;;;11.70;68.50;;;;;;4422067;29;20060;-68
2021/11/17 10:54:50;;;;;;;44.58;26.77;;;11.90;67.80;;;;;;4421860;29;20157;-68
2021/11/17 10:57:10;;;;;;;40.90;23.38;;;12.00;67.30;;;;;;4422167;29;20057;-69
2021/11/17 10:59:26;;;;;;;36.53;23.25;;;12.00;66.90;;;;;;4419412;29;20070;-69
2021/11/17 11:01:45;;;;;;;36.05;21.63;;;12.00;66.60;;;;;;4420732;29;20078;-69
2021/11/17 11:04:11;;;;;;;35.55;22.02;;;12.10;66.20;;;;;;4420303;29;20057;-68
2021/11/17 11:06:31;;;;;;;36.60;21.88;;;12.10;66.10;;;;;;4420479;29;20058;-69
2021/11/17 11:08:55;;;;;;;31.83;20.20;;;12.10;66.00;;;;;;4420583;29;20074;-69
2021/11/17 11:11:11;;;;;;;38.65;21.88;;;12.10;65.80;;;;;;4420566;29;20054;-67
2021/11/17 11:13:32;;;;;;;34.25;21.02;;;12.10;65.70;;;;;;4421762;29;20409;-69
2021/11/17 11:16:02;;;;;;;33.67;21.00;;;12.10;65.30;;;;;;4421668;29;20123;-69
2021/11/17 11:18:48;;;;;;;35.25;21.65;;;12.10;65.30;;;;;;4421635;29;20077;-68
2021/11/17 11:21:09;;;;;;;33.78;21.60;;;12.20;65.30;;;;;;4421314;29;20121;-68
2021/11/17 11:23:28;;;;;;;36.15;21.95;;;12.20;65.20;;;;;;4420386;29;20054;-68
2021/11/17 11:26:16;;;;;;;35.80;22.30;;;12.30;65.20;;;;;;4420123;29;20054;-69
2021/11/17 11:28:37;;;;;;;32.70;20.88;;;12.40;64.90;;;;;;4411481;29;20550;-69
2021/11/17 11:31:30;;;;;;;36.20;21.92;;;12.50;64.50;;;;;;4399278;29;20051;-68
2021/11/17 11:33:49;;;;;;;35.75;20.35;;;12.60;64.10;;;;;;4399641;29;20110;-71
2021/11/17 11:36:43;;;;;;;34.03;20.63;;;12.60;63.80;;;;;;4401168;29;20130;-69
2021/11/17 11:39:46;;;;;;;50.53;31.98;;;12.70;63.70;;;;;;4399778;29;20454;-67
2021/11/17 11:42:38;;;;;;;35.20;21.25;;;12.70;63.50;;;;;;4334002;30;20095;-72
2021/11/17 11:44:57;;;;;;;42.03;20.17;;;12.60;63.50;;;;;;4397892;29;20086;-71
2021/11/17 11:47:50;;;;;;;32.10;20.38;;;12.60;63.30;;;;;;4400447;29;20053;-72
2021/11/17 11:50:44;;;;;;;33.53;20.63;;;12.70;63.00;;;;;;4400708;29;20078;-70
2021/11/17 11:53:07;;;;;;;33.63;21.38;;;12.60;63.00;;;;;;4399306;29;20063;-70
2021/11/17 11:55:23;;;;;;;32.70;19.23;;;12.60;62.80;;;;;;4400582;29;20078;-70
2021/11/17 11:57:43;;;;;;;33.88;20.08;;;12.60;62.80;;;;;;4397897;29;20047;-70
2021/11/17 12:00:02;;;;;;;33.38;20.00;;;12.70;62.60;;;;;;4399776;29;20519;-70
2021/11/17 12:02:23;;;;;;;31.45;19.85;;;12.70;62.70;;;;;;4400697;29;20451;-70
2021/11/17 12:04:43;;;;;;;32.08;20.30;;;12.80;62.70;;;;;;4400141;29;20133;-70
2021/11/17 12:07:04;;;;;;;33.40;20.38;;;12.80;62.40;;;;;;4399316;29;20053;-70
2021/11/17 12:09:29;;;;;;;34.05;21.63;;;12.90;62.00;;;;;;4400377;29;20504;-70
2021/11/17 12:11:50;;;;;;;30.80;19.52;;;12.90;62.00;;;;;;4399359;29;20097;-70
2021/11/17 12:14:10;;;;;;;31.63;20.00;;;12.90;61.80;;;;;;4398910;29;20065;-70
2021/11/17 12:16:31;;;;;;;32.13;20.48;;;12.90;61.80;;;;;;4399256;29;20074;-70
2021/11/17 12:18:50;;;;;;;31.83;20.38;;;12.90;62.00;;;;;;4400552;29;20425;-70
2021/11/17 12:21:10;;;;;;;32.83;20.50;;;12.90;62.00;;;;;;4400324;29;20081;-70
2021/11/17 12:23:29;;;;;;;34.38;21.38;;;12.90;61.80;;;;;;4399281;29;20571;-70
2021/11/17 12:25:57;;;;;;;36.17;21.45;;;12.90;61.70;;;;;;4399606;29;20555;-70
2021/11/17 12:28:17;;;;;;;32.30;20.15;;;12.90;61.60;;;;;;4399296;29;20051;-70
2021/11/17 12:30:45;;;;;;;35.58;21.45;;;13.00;61.60;;;;;;4399002;29;20062;-71
2021/11/17 12:33:10;;;;;;;32.55;19.52;;;13.00;61.20;;;;;;4398958;29;20059;-70
2021/11/17 12:35:33;;;;;;;32.72;20.65;;;13.00;61.10;;;;;;4399158;29;20051;-70
2021/11/17 12:37:53;;;;;;;28.08;18.40;;;12.90;60.90;;;;;;4399456;29;20070;-70
2021/11/17 12:40:13;;;;;;;33.33;19.48;;;12.90;60.80;;;;;;4400129;29;20487;-70
2021/11/17 12:42:36;;;;;;;33.47;20.77;;;12.90;60.90;;;;;;4400123;29;20051;-70
2021/11/17 12:44:54;;;;;;;29.30;18.85;;;12.90;61.00;;;;;;4399041;29;20591;-70
2021/11/17 12:47:13;;;;;;;29.13;18.85;;;12.90;61.00;;;;;;4400235;29;20043;-70
2021/11/17 12:49:35;;;;;;;27.63;17.85;;;12.90;61.00;;;;;;4399313;29;20051;-70
2021/11/17 12:51:56;;;;;;;30.58;18.73;;;12.90;60.70;;;;;;4400367;29;20537;-70
2021/11/17 12:54:25;;;;;;;30.45;18.83;;;13.00;60.70;;;;;;4399971;29;20074;-68
2021/11/17 12:56:44;;;;;;;72.70;44.75;;;13.00;60.50;;;;;;4399986;29;20051;-70
2021/11/17 12:59:11;;;;;;;29.75;18.48;;;13.10;60.40;;;;;;4398029;29;20129;-70
2021/11/17 13:01:38;;;;;;;28.13;18.25;;;13.10;60.10;;;;;;4398962;29;20062;-70
2021/11/17 13:04:02;;;;;;;30.88;18.92;;;13.20;60.10;;;;;;4399751;29;20415;-70
2021/11/17 13:06:22;;;;;;;30.55;19.42;;;13.20;60.00;;;;;;4398394;29;20082;-70
2021/11/17 13:08:39;;;;;;;31.17;19.20;;;13.20;59.80;;;;;;4399906;29;20483;-70
2021/11/17 13:11:12;;;;;;;29.52;19.15;;;13.20;59.70;;;;;;4398598;29;20047;-69
2021/11/17 13:13:42;;;;;;;29.77;18.90;;;13.10;59.30;;;;;;4398740;29;20046;-70
2021/11/17 13:16:06;;;;;;;34.53;19.30;;;13.10;59.60;;;;;;4398774;29;20058;-70
2021/11/17 13:18:32;;;;;;;30.77;20.15;;;13.10;59.80;;;;;;4399936;29;20047;-70
2021/11/17 13:20:48;;;;;;;36.50;18.23;;;13.10;60.10;;;;;;4399943;29;20085;-70
2021/11/17 13:23:31;;;;;;;33.13;19.42;;;13.00;59.60;;;;;;4401095;29;20525;-70
2021/11/17 13:25:50;;;;;;;34.13;21.00;;;13.10;59.60;;;;;;4401544;29;20047;-70
2021/11/17 13:28:07;;;;;;;34.40;20.10;;;13.10;59.60;;;;;;4403078;29;20067;-70
2021/11/17 13:30:38;;;;;;;32.45;20.02;;;13.00;59.60;;;;;;4401807;29;20047;-70
2021/11/17 13:32:56;;;;;;;32.60;18.38;;;13.00;59.40;;;;;;4401860;29;20300;-70
2021/11/17 13:35:31;;;;;;;33.15;19.67;;;13.00;59.50;;;;;;4402898;29;20795;-70
2021/11/17 13:37:49;;;;;;;35.58;20.90;;;13.00;59.60;;;;;;4402847;29;20240;-70
2021/11/17 13:40:09;;;;;;;32.10;20.10;;;12.90;59.60;;;;;;4402105;29;20054;-71
2021/11/17 13:42:28;;;;;;;32.83;20.55;;;12.90;59.70;;;;;;4402881;29;20054;-69
2021/11/17 13:44:46;;;;;;;31.67;19.75;;;12.90;59.60;;;;;;4401591;29;20051;-70
2021/11/17 13:47:11;;;;;;;31.92;19.63;;;12.90;59.60;;;;;;4402569;29;20122;-71
2021/11/17 13:49:29;;;;;;;36.40;20.02;;;12.90;59.80;;;;;;4402675;29;20075;-71
2021/11/17 13:51:48;;;;;;;31.58;19.95;;;12.90;59.80;;;;;;4401305;29;20061;-69
2021/11/17 13:54:05;;;;;;;35.03;20.13;;;12.90;59.90;;;;;;4402457;29;20054;-71
2021/11/17 13:56:25;;;;;;;40.70;21.30;;;12.90;60.10;;;;;;4401207;29;20058;-70
2021/11/17 13:58:42;;;;;;;38.03;21.25;;;12.80;60.20;;;;;;4401415;29;20047;-69
2021/11/17 14:00:58;;;;;;;31.00;20.05;;;12.90;60.40;;;;;;4402348;29;20158;-70
2021/11/17 14:03:15;;;;;;;28.77;19.38;;;12.90;60.20;;;;;;4402094;29;20176;-70
2021/11/17 14:05:39;;;;;;;30.92;19.33;;;12.80;60.00;;;;;;4400994;29;20491;-69
2021/11/17 14:07:55;;;;;;;35.40;19.80;;;12.80;59.90;;;;;;4402464;29;20395;-68
2021/11/17 14:10:13;;;;;;;31.70;19.38;;;12.80;60.00;;;;;;4401576;29;20082;-70
2021/11/17 14:12:30;;;;;;;31.85;19.42;;;12.80;60.00;;;;;;4402448;29;20055;-69
2021/11/17 14:14:46;;;;;;;31.35;19.88;;;12.70;60.00;;;;;;4402512;29;20065;-69
2021/11/17 14:17:08;;;;;;;29.42;19.75;;;12.70;60.00;;;;;;4400576;29;20121;-69
2021/11/17 14:19:26;;;;;;;33.28;19.83;;;12.70;60.00;;;;;;4401131;29;20063;-69
2021/11/17 14:21:45;;;;;;;30.33;18.73;;;12.70;60.10;;;;;;4400459;29;20043;-69
2021/11/17 14:24:02;;;;;;;31.05;20.05;;;12.60;59.80;;;;;;4402307;29;20070;-69
2021/11/17 14:26:19;;;;;;;33.55;20.10;;;12.60;60.00;;;;;;4402211;29;20397;-69
2021/11/17 14:28:38;;;;;;;32.28;20.02;;;12.60;60.10;;;;;;4401820;29;20051;-68
2021/11/17 14:31:00;;;;;;;32.60;20.33;;;12.60;60.20;;;;;;4402475;29;20502;-68
2021/11/17 14:33:23;;;;;;;31.15;19.70;;;12.60;60.20;;;;;;4400005;29;20072;-69
2021/11/17 14:35:41;;;;;;;34.45;20.20;;;12.50;60.20;;;;;;4402193;29;20047;-68
2021/11/17 14:38:02;;;;;;;34.33;20.90;;;12.60;60.40;;;;;;4400503;29;20541;-68
2021/11/17 14:40:19;;;;;;;31.70;20.23;;;12.50;60.30;;;;;;4401386;29;20053;-68
2021/11/17 14:42:38;;;;;;;33.95;20.42;;;12.50;60.30;;;;;;4400403;29;20127;-69
2021/11/17 14:44:54;;;;;;;30.95;19.73;;;12.40;60.50;;;;;;4401688;29;20043;-69
2021/11/17 14:47:12;;;;;;;33.45;20.58;;;12.40;61.40;;;;;;4400298;29;20047;-68
2021/11/17 14:49:31;;;;;;;34.05;19.80;;;12.40;60.70;;;;;;4401755;29;20059;-69
2021/11/17 14:51:50;;;;;;;29.65;19.23;;;12.40;60.60;;;;;;4401229;29;20062;-69